TimeEDT,TemperatureF,Dew PointF,Humidity,Sea Level PressureIn,VisibilityMPH,Wind Direction,Wind SpeedMPH,Gust SpeedMPH,PrecipitationIn,Events,Conditions,WindDirDegrees,DateUTC
12:15 AM,48.2,33.8,58,29.88,10.0,South,6.9,-,N/A,,Clear,180,2013-03-16 04:15:00
12:35 AM,46.4,33.8,62,29.87,10.0,South,5.8,-,N/A,,Clear,180,2013-03-16 04:35:00
12:55 AM,44.6,35.6,71,29.87,10.0,South,6.9,-,N/A,,Clear,190,2013-03-16 04:55:00
1:15 AM,46.4,35.6,66,29.87,10.0,South,5.8,-,N/A,,Clear,190,2013-03-16 05:15:00
1:55 AM,44.6,35.6,71,29.86,10.0,South,6.9,-,N/A,,Scattered Clouds,190,2013-03-16 05:55:00
2:15 AM,46.4,35.6,66,29.86,10.0,South,6.9,-,N/A,,Mostly Cloudy,190,2013-03-16 06:15:00
2:35 AM,46.4,37.4,71,29.85,10.0,SSW,6.9,-,N/A,,Mostly Cloudy,200,2013-03-16 06:35:00
2:55 AM,48.2,37.4,66,29.85,10.0,SSW,5.8,-,N/A,,Overcast,210,2013-03-16 06:55:00
3:15 AM,48.2,37.4,66,29.84,10.0,SSW,5.8,-,N/A,,Overcast,210,2013-03-16 07:15:00
3:35 AM,50.0,37.4,62,29.84,10.0,SSW,6.9,-,N/A,,Overcast,210,2013-03-16 07:35:00
3:55 AM,50.0,37.4,62,29.83,10.0,SSW,5.8,-,N/A,,Overcast,210,2013-03-16 07:55:00
4:15 AM,51.8,37.4,58,29.83,10.0,SW,5.8,-,N/A,,Mostly Cloudy,220,2013-03-16 08:15:00
4:35 AM,50.0,37.4,62,29.83,10.0,SW,5.8,-,N/A,,Scattered Clouds,220,2013-03-16 08:35:00
4:55 AM,50.0,37.4,62,29.83,10.0,SW,4.6,-,N/A,,Clear,230,2013-03-16 08:55:00
5:15 AM,51.8,37.4,58,29.83,10.0,SSW,4.6,-,N/A,,Clear,210,2013-03-16 09:15:00
5:35 AM,50.0,37.4,62,29.83,10.0,SW,3.5,-,N/A,,Clear,220,2013-03-16 09:35:00
5:55 AM,50.0,37.4,62,29.84,10.0,SW,3.5,-,N/A,,Mostly Cloudy,230,2013-03-16 09:55:00
6:15 AM,50.0,39.2,66,29.85,10.0,SW,3.5,-,N/A,,Overcast,220,2013-03-16 10:15:00
6:35 AM,51.8,39.2,62,29.82,10.0,SSE,4.6,-,N/A,,Overcast,160,2013-03-16 10:35:00
6:55 AM,50.0,37.4,62,29.83,10.0,South,4.6,-,N/A,,Scattered Clouds,190,2013-03-16 10:55:00
7:15 AM,50.0,39.2,66,29.85,10.0,SSW,3.5,-,N/A,,Overcast,200,2013-03-16 11:15:00
7:35 AM,50.0,39.2,66,29.85,10.0,South,3.5,-,N/A,,Scattered Clouds,190,2013-03-16 11:35:00
7:55 AM,50.0,39.2,66,29.83,10.0,South,3.5,-,N/A,,Mostly Cloudy,170,2013-03-16 11:55:00
8:15 AM,50.0,39.2,66,29.82,10.0,South,4.6,-,N/A,,Scattered Clouds,190,2013-03-16 12:15:00
8:35 AM,51.8,39.2,62,29.81,10.0,South,5.8,-,N/A,,Clear,190,2013-03-16 12:35:00
8:55 AM,53.6,41.0,62,29.82,10.0,South,3.5,-,N/A,,Mostly Cloudy,190,2013-03-16 12:55:00
9:15 AM,53.6,41.0,62,29.83,10.0,SSW,4.6,-,N/A,,Overcast,200,2013-03-16 13:15:00
9:55 AM,50.0,44.6,82,29.89,10.0,NW,4.6,-,0.01,Rain,Rain,310,2013-03-16 13:55:00
10:15 AM,50.0,44.6,82,29.86,10.0,Calm,Calm,-,0.03,Rain,Light Rain,0,2013-03-16 14:15:00
10:35 AM,50.0,46.4,87,29.84,10.0,Calm,Calm,-,0.03,,Scattered Clouds,0,2013-03-16 14:35:00
10:55 AM,51.8,46.4,82,29.82,10.0,SE,3.5,-,N/A,,Scattered Clouds,130,2013-03-16 14:55:00
11:15 AM,53.6,48.2,82,29.81,10.0,South,5.8,-,N/A,,Scattered Clouds,180,2013-03-16 15:15:00
11:35 AM,55.4,48.2,77,29.81,10.0,South,9.2,-,N/A,,Scattered Clouds,190,2013-03-16 15:35:00
11:55 AM,55.4,48.2,77,29.80,10.0,South,8.1,-,N/A,,Mostly Cloudy,180,2013-03-16 15:55:00
12:15 PM,57.2,48.2,72,29.79,10.0,SSW,9.2,-,N/A,,Overcast,200,2013-03-16 16:15:00
12:35 PM,57.2,48.2,72,29.78,10.0,Calm,Calm,-,N/A,,Overcast,0,2013-03-16 16:35:00
12:55 PM,62.6,48.2,59,29.77,10.0,SSW,8.1,-,N/A,,Scattered Clouds,200,2013-03-16 16:55:00
1:15 PM,62.6,50.0,63,29.75,10.0,South,10.4,-,N/A,,Clear,180,2013-03-16 17:15:00
1:35 PM,64.4,48.2,56,29.74,10.0,SSW,9.2,-,N/A,,Clear,200,2013-03-16 17:35:00
1:55 PM,66.2,48.2,52,29.72,10.0,SW,12.7,-,N/A,,Clear,230,2013-03-16 17:55:00
2:15 PM,68.0,48.2,49,29.72,10.0,SSW,10.4,-,N/A,,Clear,210,2013-03-16 18:15:00
2:35 PM,69.8,48.2,46,29.71,10.0,SW,10.4,-,N/A,,Clear,230,2013-03-16 18:35:00
2:55 PM,69.8,48.2,46,29.70,10.0,WSW,10.4,-,N/A,,Clear,250,2013-03-16 18:55:00
3:15 PM,71.6,50.0,46,29.69,10.0,SW,9.2,-,N/A,,Clear,230,2013-03-16 19:15:00
3:35 PM,73.4,50.0,44,29.69,10.0,SW,6.9,-,N/A,,Clear,230,2013-03-16 19:35:00
3:55 PM,73.4,50.0,44,29.68,7.0,SW,8.1,-,N/A,,Clear,230,2013-03-16 19:55:00
4:15 PM,75.2,50.0,41,29.66,10.0,SSW,9.2,17.3,N/A,,Clear,210,2013-03-16 20:15:00
4:35 PM,75.2,48.2,38,29.66,10.0,WSW,11.5,-,N/A,,Clear,250,2013-03-16 20:35:00
4:55 PM,75.2,48.2,38,29.65,10.0,SW,8.1,-,N/A,,Clear,220,2013-03-16 20:55:00
5:15 PM,75.2,48.2,38,29.64,10.0,SW,10.4,-,N/A,,Clear,220,2013-03-16 21:15:00
5:35 PM,73.4,48.2,41,29.63,7.0,SSW,8.1,-,N/A,,Clear,210,2013-03-16 21:35:00
5:55 PM,73.4,48.2,41,29.64,10.0,SW,11.5,17.3,N/A,,Clear,220,2013-03-16 21:55:00
6:15 PM,73.4,48.2,41,29.64,10.0,SSW,6.9,-,N/A,,Clear,210,2013-03-16 22:15:00
6:35 PM,71.6,48.2,43,29.64,7.0,SSW,8.1,-,N/A,,Clear,210,2013-03-16 22:35:00
6:55 PM,69.8,48.2,46,29.63,7.0,SSW,5.8,-,N/A,,Clear,200,2013-03-16 22:55:00
7:15 PM,69.8,48.2,46,29.63,10.0,South,4.6,-,N/A,,Clear,190,2013-03-16 23:15:00
7:35 PM,69.8,48.2,46,29.64,10.0,Calm,Calm,-,N/A,Thunderstorm,Clear,0,2013-03-16 23:35:00
7:55 PM,68.0,48.2,49,29.66,10.0,Calm,Calm,-,N/A,,Mostly Cloudy,0,2013-03-16 23:55:00
8:15 PM,60.8,51.8,72,29.77,7.0,North,16.1,26.5,0.02,Rain,Rain,350,2013-03-17 00:15:00
8:35 PM,55.4,53.6,94,29.78,10.0,NNE,6.9,17.3,0.06,Rain,Rain,30,2013-03-17 00:35:00
8:55 PM,55.4,53.6,94,29.79,7.0,Calm,Calm,-,N/A,Rain,Light Rain,0,2013-03-17 00:55:00
9:15 PM,55.4,53.6,94,29.78,7.0,East,4.6,-,N/A,,Light Drizzle,80,2013-03-17 01:15:00
9:35 PM,55.4,53.6,94,29.78,7.0,ESE,3.5,-,N/A,,Scattered Clouds,120,2013-03-17 01:35:00
9:55 PM,55.4,53.6,94,29.78,7.0,Calm,Calm,-,N/A,,Mostly Cloudy,0,2013-03-17 01:55:00
10:15 PM,55.4,53.6,94,29.79,7.0,Calm,Calm,-,N/A,,Clear,0,2013-03-17 02:15:00
10:35 PM,53.6,51.8,94,29.79,1.5,Calm,Calm,-,N/A,,Mist,0,2013-03-17 02:35:00
10:55 PM,51.8,51.8,100,29.80,1.0,Calm,Calm,-,N/A,,Mist,0,2013-03-17 02:55:00
11:15 PM,50.0,50.0,100,29.80,0.2,Calm,Calm,-,N/A,Fog,Fog,0,2013-03-17 03:15:00
11:35 PM,51.8,51.8,100,29.80,0.2,Calm,Calm,-,N/A,Fog,Fog,0,2013-03-17 03:35:00
11:55 PM,50.0,48.2,94,29.81,0.2,SSW,3.5,-,N/A,Fog,Fog,200,2013-03-17 03:55:00